Time;durP1;ratioP1;P1;durP2;ratioP2;P2;SDS_P1;SDS_P2;PMS_P1;PMS_P2;Temp;Humidity;BMP_temperature;BMP_pressure;BME280_temperature;BME280_humidity;BME280_pressure;Samples;Min_cycle;Max_cycle;Signal;HPM_P1;HPM_P2
2022/12/05 00:01:46;;;;;;;31.02;4.07;;;14.30;99.90;;;;;;5012393;28;20061;-76
2022/12/05 00:04:13;;;;;;;24.83;3.83;;;14.30;99.90;;;;;;5012988;28;20026;-77
2022/12/05 00:06:41;;;;;;;30.05;3.78;;;14.30;99.90;;;;;;5012702;28;20034;-76
2022/12/05 00:09:08;;;;;;;33.90;3.75;;;14.30;99.90;;;;;;5012719;28;20018;-77
2022/12/05 00:11:37;;;;;;;18.13;3.40;;;14.30;99.90;;;;;;5012735;28;20053;-76
2022/12/05 00:14:05;;;;;;;17.88;3.50;;;14.30;99.90;;;;;;5012506;28;20095;-77
2022/12/05 00:16:32;;;;;;;24.75;3.08;;;14.40;99.90;;;;;;5010738;28;20045;-76
2022/12/05 00:19:01;;;;;;;26.80;3.88;;;14.40;99.90;;;;;;5012459;28;20037;-76
2022/12/05 00:21:30;;;;;;;27.38;3.33;;;14.40;99.90;;;;;;5012597;28;20064;-76
2022/12/05 00:23:58;;;;;;;22.92;4.07;;;14.40;99.90;;;;;;5011027;28;20482;-75
2022/12/05 00:26:27;;;;;;;21.52;4.25;;;14.40;99.90;;;;;;5012288;28;20029;-76
2022/12/05 00:28:54;;;;;;;;;;;14.30;99.90;;;;;;5012807;28;20044;-76
2022/12/05 00:31:22;;;;;;;20.45;3.55;;;14.30;99.90;;;;;;5012258;28;19905;-76
2022/12/05 00:33:51;;;;;;;19.63;3.10;;;14.20;99.90;;;;;;5012006;28;20026;-76
2022/12/05 00:36:26;;;;;;;22.00;3.90;;;14.20;99.90;;;;;;5010812;28;20042;-76
2022/12/05 00:39:02;;;;;;;23.45;3.38;;;14.20;99.90;;;;;;4977746;28;20049;-76
2022/12/05 00:41:29;;;;;;;31.02;3.53;;;14.20;99.90;;;;;;5010336;28;20454;-76
2022/12/05 00:43:58;;;;;;;;;;;14.20;99.90;;;;;;4994066;28;20374;-75
2022/12/05 00:46:29;;;;;;;31.05;4.13;;;14.10;99.90;;;;;;5011863;28;20330;-76
2022/12/05 00:48:58;;;;;;;23.42;2.95;;;14.00;99.90;;;;;;5012023;28;20697;-75
2022/12/05 00:51:32;;;;;;;22.98;3.42;;;14.00;99.90;;;;;;5014857;28;20266;-74
2022/12/05 00:54:01;;;;;;;29.92;3.28;;;14.10;99.90;;;;;;5019225;28;20370;-76
2022/12/05 00:56:30;;;;;;;25.00;3.45;;;14.00;99.90;;;;;;5020869;28;20034;-75
2022/12/05 00:58:58;;;;;;;20.42;3.28;;;13.90;99.90;;;;;;5024765;28;20428;-75
2022/12/05 01:01:37;;;;;;;26.98;3.47;;;13.80;99.90;;;;;;5010865;28;20141;-76
2022/12/05 01:04:12;;;;;;;27.05;3.92;;;13.80;99.90;;;;;;5011839;28;20076;-75
2022/12/05 01:06:40;;;;;;;28.60;3.72;;;13.70;99.90;;;;;;5011743;28;20026;-76
2022/12/05 01:09:09;;;;;;;19.85;3.08;;;13.60;99.90;;;;;;5009920;28;20363;-77
2022/12/05 01:11:38;;;;;;;18.25;3.00;;;13.60;99.90;;;;;;5011072;28;20062;-75
2022/12/05 01:14:05;;;;;;;22.08;3.38;;;13.60;99.90;;;;;;5011557;28;20036;-76
2022/12/05 01:16:33;;;;;;;;;;;13.60;99.90;;;;;;5010012;28;20075;-76
2022/12/05 01:19:04;;;;;;;20.75;3.42;;;13.50;99.90;;;;;;5011415;28;19905;-76
2022/12/05 01:21:33;;;;;;;22.52;4.13;;;13.50;99.90;;;;;;5009654;28;20140;-76
2022/12/05 01:24:01;;;;;;;24.17;3.05;;;13.60;99.90;;;;;;5010292;28;20029;-77
2022/12/05 01:26:39;;;;;;;16.83;2.95;;;13.50;99.90;;;;;;5009645;28;20123;-76
2022/12/05 01:29:05;;;;;;;22.58;3.20;;;13.50;99.90;;;;;;5010227;28;20036;-77
2022/12/05 01:31:36;;;;;;;26.67;4.13;;;13.50;99.90;;;;;;4992450;28;20077;-75
2022/12/05 01:34:06;;;;;;;19.63;3.70;;;13.50;99.90;;;;;;5010435;28;20088;-76
2022/12/05 01:36:33;;;;;;;25.85;3.10;;;13.40;99.90;;;;;;5011106;28;20038;-76
2022/12/05 01:39:01;;;;;;;16.38;2.78;;;13.40;99.90;;;;;;5011302;28;20118;-76
2022/12/05 01:41:31;;;;;;;18.80;2.88;;;13.30;99.90;;;;;;5010941;28;20022;-76
2022/12/05 01:44:23;;;;;;;17.33;2.90;;;13.20;99.90;;;;;;5009945;28;20057;-76
2022/12/05 01:46:50;;;;;;;23.77;3.92;;;13.20;99.90;;;;;;4971563;28;20022;-77
2022/12/05 01:49:35;;;;;;;14.52;2.92;;;13.10;99.90;;;;;;5010956;28;20513;-76
2022/12/05 01:52:06;;;;;;;22.08;3.10;;;13.10;99.90;;;;;;5011041;28;20108;-77
2022/12/05 01:54:41;;;;;;;12.18;3.10;;;13.00;99.90;;;;;;5011085;28;20033;-77
2022/12/05 01:57:10;;;;;;;21.55;2.97;;;13.00;99.90;;;;;;5009411;28;20377;-76
2022/12/05 01:59:40;;;;;;;21.23;3.42;;;12.90;99.90;;;;;;5010663;28;20026;-77
2022/12/05 02:02:08;;;;;;;15.52;2.47;;;12.90;99.90;;;;;;5010508;28;20052;-77
2022/12/05 02:04:40;;;;;;;15.82;3.33;;;12.80;99.90;;;;;;5011095;28;20426;-77
2022/12/05 02:07:07;;;;;;;11.80;2.78;;;12.80;99.90;;;;;;5009232;28;20022;-76
2022/12/05 02:09:33;;;;;;;18.63;3.30;;;12.80;99.90;;;;;;5010674;28;20036;-76
2022/12/05 02:12:02;;;;;;;19.60;2.65;;;12.80;99.90;;;;;;5010745;28;20042;-77
2022/12/05 02:14:49;;;;;;;11.43;2.58;;;12.70;99.90;;;;;;5014681;28;20026;-76
2022/12/05 02:17:21;;;;;;;15.50;2.60;;;12.80;99.90;;;;;;5014776;28;20034;-76
2022/12/05 02:20:06;;;;;;;14.38;2.60;;;12.70;99.90;;;;;;5014776;28;20076;-76
2022/12/05 02:22:56;;;;;;;14.57;2.63;;;12.60;99.90;;;;;;5014280;28;20105;-76
2022/12/05 02:25:55;;;;;;;13.45;3.13;;;12.60;99.90;;;;;;4996345;28;20037;-77
2022/12/05 02:28:27;;;;;;;14.32;2.55;;;12.60;99.90;;;;;;5014631;28;20041;-76
2022/12/05 02:31:28;;;;;;;17.75;3.05;;;12.50;99.90;;;;;;5012770;28;20045;-76
2022/12/05 02:34:29;;;;;;;16.85;2.35;;;12.50;99.90;;;;;;4986366;28;20390;-76
2022/12/05 02:37:17;;;;;;;11.70;2.38;;;12.40;99.90;;;;;;4953358;29;20056;-76
2022/12/05 02:40:05;;;;;;;9.40;2.35;;;12.40;99.90;;;;;;4953365;29;20031;-76
2022/12/05 02:42:48;;;;;;;18.05;2.88;;;12.30;99.90;;;;;;4953888;29;20039;-76
2022/12/05 02:45:19;;;;;;;16.65;2.40;;;12.30;99.90;;;;;;4953724;29;20031;-77
2022/12/05 02:47:49;;;;;;;13.18;2.40;;;12.30;99.90;;;;;;4953729;29;20183;-76
2022/12/05 02:50:21;;;;;;;17.75;2.45;;;12.30;99.90;;;;;;4953735;29;20218;-77
2022/12/05 02:52:52;;;;;;;10.52;2.50;;;12.30;99.90;;;;;;4953111;29;20035;-76
2022/12/05 02:55:22;;;;;;;11.82;2.67;;;12.20;99.90;;;;;;4953146;29;20039;-76
2022/12/05 02:57:53;;;;;;;9.98;2.58;;;12.20;99.90;;;;;;4953037;29;20035;-76
2022/12/05 03:00:20;;;;;;;15.95;2.95;;;12.20;99.90;;;;;;4953052;29;20058;-76
2022/12/05 03:02:47;;;;;;;19.50;3.08;;;12.20;99.90;;;;;;4953108;29;20118;-76
2022/12/05 03:05:13;;;;;;;10.52;2.17;;;12.10;99.90;;;;;;4953293;29;20031;-76
2022/12/05 03:07:43;;;;;;;18.03;2.63;;;12.20;99.90;;;;;;4953184;29;20046;-76
2022/12/05 03:10:12;;;;;;;6.93;1.92;;;12.10;99.90;;;;;;4953116;29;20062;-76
2022/12/05 03:12:46;;;;;;;9.85;2.17;;;12.20;99.90;;;;;;4952458;29;20258;-76
2022/12/05 03:15:21;;;;;;;11.50;2.70;;;12.00;99.90;;;;;;5013613;28;20484;-76
2022/12/05 03:18:06;;;;;;;11.60;2.33;;;12.00;99.90;;;;;;5013195;28;20120;-75
2022/12/05 03:20:37;;;;;;;12.40;2.40;;;12.00;99.90;;;;;;5012977;28;20473;-77
2022/12/05 03:23:10;;;;;;;6.60;1.90;;;12.00;99.90;;;;;;5013486;28;20045;-76
2022/12/05 03:25:54;;;;;;;9.77;2.53;;;12.00;99.90;;;;;;5012665;28;20397;-76
2022/12/05 03:28:28;;;;;;;8.43;2.22;;;12.00;99.90;;;;;;5013704;28;20022;-77
2022/12/05 03:30:59;;;;;;;6.70;2.10;;;11.90;99.90;;;;;;5013266;28;20033;-77
2022/12/05 03:33:28;;;;;;;13.13;2.53;;;11.90;99.90;;;;;;5013434;28;20339;-76
2022/12/05 03:36:04;;;;;;;11.88;2.50;;;11.90;99.90;;;;;;5013045;28;20117;-76
2022/12/05 03:38:55;;;;;;;10.48;2.33;;;11.90;99.90;;;;;;5013414;28;20024;-76
2022/12/05 03:41:39;;;;;;;8.75;2.35;;;11.80;99.90;;;;;;5012810;28;20450;-76
2022/12/05 03:44:36;;;;;;;10.32;2.22;;;11.80;99.90;;;;;;5013159;28;20118;-77
2022/12/05 03:47:57;;;;;;;12.48;3.20;;;11.80;99.90;;;;;;5012894;28;20048;-76
2022/12/05 03:50:27;;;;;;;10.73;2.30;;;11.80;99.90;;;;;;4952460;29;20221;-76
2022/12/05 03:53:10;;;;;;;6.97;2.20;;;11.80;99.90;;;;;;4952260;29;20042;-75
2022/12/05 03:55:40;;;;;;;12.77;3.25;;;11.80;99.90;;;;;;4952299;29;20091;-75
2022/12/05 03:58:11;;;;;;;13.52;2.67;;;11.70;99.90;;;;;;4951865;29;20039;-75
2022/12/05 04:00:44;;;;;;;12.75;2.75;;;11.80;99.90;;;;;;4948929;29;20043;-76
2022/12/05 04:03:50;;;;;;;17.70;2.70;;;11.80;99.90;;;;;;4959130;28;20428;-75
2022/12/05 04:06:35;;;;;;;7.88;2.00;;;11.80;99.90;;;;;;4902903;29;20040;-73
2022/12/05 04:09:13;;;;;;;12.23;2.40;;;11.80;99.90;;;;;;4903787;29;20067;-75
2022/12/05 04:11:52;;;;;;;8.88;2.50;;;11.80;99.90;;;;;;4901167;29;20404;-76
2022/12/05 04:14:25;;;;;;;10.65;3.10;;;11.80;99.90;;;;;;4900547;29;20463;-76
2022/12/05 04:17:36;;;;;;;5.93;2.38;;;11.70;99.90;;;;;;4895243;29;20100;-77
2022/12/05 04:23:09;;;;;;;7.80;2.75;;;11.60;99.90;;;;;;4839593;29;20070;-77
2022/12/05 04:26:33;;;;;;;15.05;3.42;;;11.50;99.90;;;;;;4843628;29;20494;-77
2022/12/05 04:29:35;;;;;;;7.40;2.40;;;11.50;99.90;;;;;;4803479;29;20043;-77
2022/12/05 04:32:07;;;;;;;14.02;2.92;;;11.60;99.90;;;;;;4803722;29;20074;-77
2022/12/05 04:34:40;;;;;;;4.45;2.17;;;11.60;99.90;;;;;;4803704;29;20043;-76
2022/12/05 04:37:30;;;;;;;13.60;2.60;;;11.60;99.90;;;;;;4801529;29;20123;-77
2022/12/05 04:40:09;;;;;;;7.80;2.53;;;11.50;99.90;;;;;;4803465;29;20043;-76
2022/12/05 04:42:46;;;;;;;12.48;2.50;;;11.50;99.90;;;;;;4849599;29;20120;-77
2022/12/05 04:45:20;;;;;;;;;;;11.50;99.90;;;;;;4843198;29;20102;-77
2022/12/05 04:47:53;;;;;;;7.10;2.28;;;11.50;99.90;;;;;;4821729;29;19909;-77
2022/12/05 04:50:25;;;;;;;11.52;3.35;;;11.40;99.90;;;;;;4838907;29;20089;-77
2022/12/05 04:52:59;;;;;;;6.68;2.15;;;11.40;99.90;;;;;;4876412;29;20072;-73
2022/12/05 04:55:34;;;;;;;7.80;2.13;;;11.40;99.90;;;;;;4876298;29;20041;-77
2022/12/05 04:58:12;;;;;;;7.28;2.15;;;11.40;99.90;;;;;;4876213;29;20089;-77
2022/12/05 05:01:41;;;;;;;8.15;2.17;;;11.40;99.90;;;;;;4876133;29;20033;-77
2022/12/05 05:04:08;;;;;;;10.45;2.67;;;11.40;99.90;;;;;;4912055;29;20035;-72
2022/12/05 05:06:38;;;;;;;5.57;2.10;;;11.40;99.90;;;;;;4935480;29;20043;-77
2022/12/05 05:09:04;;;;;;;11.77;2.17;;;11.40;99.90;;;;;;4951861;29;20400;-77
2022/12/05 05:11:50;;;;;;;10.30;2.53;;;11.40;99.90;;;;;;4950789;29;20051;-77
2022/12/05 05:14:22;;;;;;;10.52;2.20;;;11.30;99.90;;;;;;4951655;29;20527;-76
2022/12/05 05:17:07;;;;;;;12.38;2.83;;;11.30;99.90;;;;;;4952250;29;20043;-77
2022/12/05 05:19:34;;;;;;;11.80;2.97;;;11.30;99.90;;;;;;4928127;28;20081;-76
2022/12/05 05:22:01;;;;;;;8.23;2.30;;;11.30;99.90;;;;;;4991682;28;20026;-78
2022/12/05 05:24:29;;;;;;;16.90;3.53;;;11.30;99.90;;;;;;4991875;28;20228;-76
2022/12/05 05:26:55;;;;;;;9.52;2.63;;;11.30;99.90;;;;;;4991286;28;20080;-77
2022/12/05 05:29:37;;;;;;;15.02;3.25;;;11.40;99.90;;;;;;4991747;28;20154;-76
2022/12/05 05:32:03;;;;;;;7.40;2.47;;;11.30;99.90;;;;;;4991685;28;20053;-77
2022/12/05 05:34:29;;;;;;;14.23;2.37;;;11.40;99.90;;;;;;4974644;28;20436;-77
2022/12/05 05:36:55;;;;;;;11.97;2.80;;;11.40;99.90;;;;;;4991653;28;20050;-75
2022/12/05 05:39:28;;;;;;;11.18;2.92;;;11.40;99.90;;;;;;4991783;28;20018;-76
2022/12/05 05:42:13;;;;;;;8.57;3.08;;;11.40;99.90;;;;;;4974932;28;20144;-77
2022/12/05 05:45:00;;;;;;;14.13;2.95;;;11.40;99.90;;;;;;4993434;28;20041;-76
2022/12/05 05:47:26;;;;;;;9.27;2.40;;;11.40;99.90;;;;;;4993096;28;20494;-77
2022/12/05 05:49:53;;;;;;;12.52;2.90;;;11.50;99.90;;;;;;4993570;28;20347;-75
2022/12/05 05:52:26;;;;;;;10.35;3.03;;;11.40;99.90;;;;;;4993147;28;20026;-76
2022/12/05 05:54:58;;;;;;;15.93;3.38;;;11.40;99.90;;;;;;4993301;28;20058;-77
2022/12/05 05:57:28;;;;;;;20.33;4.97;;;11.30;99.90;;;;;;4992811;28;20084;-77
2022/12/05 06:00:00;;;;;;;11.73;3.00;;;11.30;99.90;;;;;;4992972;28;20048;-77
2022/12/05 06:02:39;;;;;;;14.52;3.17;;;11.20;99.90;;;;;;4993272;28;20080;-76
2022/12/05 06:05:05;;;;;;;12.93;2.70;;;11.20;99.90;;;;;;4993274;28;20030;-77
2022/12/05 06:07:31;;;;;;;10.30;2.65;;;11.20;99.90;;;;;;4992848;28;20023;-72
2022/12/05 06:09:58;;;;;;;12.02;2.78;;;11.20;99.90;;;;;;4993123;28;20044;-77
2022/12/05 06:12:25;;;;;;;9.30;2.90;;;11.20;99.90;;;;;;4992226;28;20060;-77
2022/12/05 06:14:52;;;;;;;5.50;2.60;;;11.20;99.90;;;;;;4991065;28;20096;-72
2022/12/05 06:17:19;;;;;;;10.38;3.05;;;11.20;99.90;;;;;;4993200;28;20035;-72
2022/12/05 06:19:54;;;;;;;8.18;2.80;;;11.20;99.90;;;;;;4993013;28;20088;-71
2022/12/05 06:22:20;;;;;;;7.25;2.50;;;11.30;99.90;;;;;;4993605;28;20110;-72
2022/12/05 06:24:46;;;;;;;10.27;3.27;;;11.20;99.90;;;;;;4993040;28;20026;-72
2022/12/05 06:27:12;;;;;;;9.13;2.83;;;11.30;99.90;;;;;;5004259;28;20041;-72
2022/12/05 06:29:39;;;;;;;8.23;2.95;;;11.30;99.90;;;;;;5012337;28;20431;-70
2022/12/05 06:32:05;;;;;;;6.80;2.63;;;11.40;99.90;;;;;;5012289;28;20014;-75
2022/12/05 06:34:31;;;;;;;6.67;2.63;;;11.60;99.90;;;;;;5012098;28;20033;-71
2022/12/05 06:36:58;;;;;;;10.38;2.72;;;11.70;99.90;;;;;;5012077;28;20041;-71
2022/12/05 06:39:26;;;;;;;9.68;2.33;;;11.80;99.90;;;;;;5012198;28;20025;-71
2022/12/05 06:41:52;;;;;;;6.78;2.75;;;11.90;99.90;;;;;;5012172;28;20026;-75
2022/12/05 06:44:20;;;;;;;11.00;2.67;;;12.00;99.90;;;;;;5012082;28;20103;-71
2022/12/05 06:46:47;;;;;;;11.30;2.63;;;12.20;99.90;;;;;;5011573;28;20074;-71
2022/12/05 06:49:13;;;;;;;7.13;2.58;;;12.50;99.90;;;;;;5011895;28;20061;-71
2022/12/05 06:51:39;;;;;;;17.77;3.25;;;12.70;99.90;;;;;;5011288;28;20026;-72
2022/12/05 06:54:05;;;;;;;13.48;2.78;;;12.90;99.90;;;;;;5010713;28;20037;-72
2022/12/05 06:56:33;;;;;;;7.83;2.47;;;13.30;99.90;;;;;;5011200;28;20057;-72
2022/12/05 06:59:00;;;;;;;9.77;2.38;;;13.60;99.90;;;;;;5010767;28;20280;-72
2022/12/05 07:01:45;;;;;;;20.10;3.10;;;13.90;99.90;;;;;;5014366;28;20030;-72
2022/12/05 07:04:23;;;;;;;11.63;2.20;;;14.10;99.90;;;;;;5014214;28;20029;-73
2022/12/05 07:06:50;;;;;;;14.98;2.80;;;14.30;99.90;;;;;;5012797;28;20026;-72
2022/12/05 07:09:19;;;;;;;10.20;2.80;;;14.50;99.90;;;;;;5014196;28;20053;-72
2022/12/05 07:11:50;;;;;;;12.10;2.72;;;14.60;99.90;;;;;;5013711;28;20143;-72
2022/12/05 07:14:17;;;;;;;7.32;2.35;;;14.70;99.90;;;;;;5014241;28;20390;-70
2022/12/05 07:16:50;;;;;;;20.05;2.55;;;14.70;99.90;;;;;;5014013;28;20136;-73
2022/12/05 07:19:16;;;;;;;14.52;2.65;;;14.80;99.90;;;;;;5014484;28;20026;-74
2022/12/05 07:21:43;;;;;;;11.30;2.80;;;15.30;99.90;;;;;;5014876;28;20112;-76
2022/12/05 07:24:09;;;;;;;;;;;15.70;99.90;;;;;;5013756;28;20272;-75
2022/12/05 07:26:35;;;;;;;8.07;2.38;;;15.90;99.90;;;;;;5014664;28;19905;-74
2022/12/05 07:29:01;;;;;;;17.97;2.93;;;15.90;99.90;;;;;;5014948;28;20026;-76
2022/12/05 07:31:29;;;;;;;10.65;2.22;;;15.90;99.90;;;;;;5014349;28;20264;-75
2022/12/05 07:33:56;;;;;;;7.07;1.95;;;15.90;99.90;;;;;;5013849;28;20117;-75
2022/12/05 07:36:22;;;;;;;13.60;2.95;;;15.90;99.90;;;;;;5013689;28;20053;-73
2022/12/05 07:38:55;;;;;;;9.93;3.00;;;15.70;99.90;;;;;;5014378;28;20109;-74
2022/12/05 07:41:30;;;;;;;16.35;3.08;;;15.60;99.90;;;;;;5014487;28;20022;-74
2022/12/05 07:43:59;;;;;;;11.60;2.80;;;15.60;99.90;;;;;;5013931;28;20069;-75
2022/12/05 07:46:27;;;;;;;11.65;3.45;;;15.50;99.90;;;;;;5012622;28;20109;-74
2022/12/05 07:48:54;;;;;;;15.05;2.83;;;15.60;99.90;;;;;;5014154;28;20165;-74
2022/12/05 07:51:21;;;;;;;17.67;3.00;;;15.60;99.90;;;;;;5012077;28;20026;-75
2022/12/05 07:53:47;;;;;;;8.20;2.15;;;15.50;99.90;;;;;;5014226;28;20200;-74
2022/12/05 07:56:16;;;;;;;12.75;2.42;;;15.50;99.90;;;;;;5013736;28;20037;-74
2022/12/05 07:58:44;;;;;;;10.35;2.53;;;15.60;99.90;;;;;;5013463;28;20025;-75
2022/12/05 08:01:21;;;;;;;9.82;2.17;;;15.50;99.90;;;;;;5013539;28;20037;-74
2022/12/05 08:03:48;;;;;;;10.98;2.50;;;15.40;99.90;;;;;;5013702;28;20446;-75
2022/12/05 08:06:17;;;;;;;11.75;2.67;;;15.30;99.90;;;;;;5013642;28;20080;-76
2022/12/05 08:08:44;;;;;;;11.85;3.17;;;15.30;99.90;;;;;;5013379;28;20069;-75
2022/12/05 08:11:16;;;;;;;12.35;3.08;;;15.30;99.90;;;;;;5014244;28;20340;-76
2022/12/05 08:13:44;;;;;;;11.10;2.72;;;15.20;99.90;;;;;;5014289;28;20046;-76
2022/12/05 08:16:15;;;;;;;16.35;2.80;;;15.20;99.90;;;;;;5014013;28;20037;-78
2022/12/05 08:18:42;;;;;;;12.20;2.83;;;15.10;99.90;;;;;;5013425;28;20037;-73
2022/12/05 08:21:17;;;;;;;9.20;2.45;;;15.00;99.90;;;;;;5013688;28;20022;-76
2022/12/05 08:23:44;;;;;;;15.38;3.00;;;15.10;99.90;;;;;;5013450;28;20033;-75
2022/12/05 08:26:23;;;;;;;;;;;15.20;99.90;;;;;;5014282;28;20054;-77
2022/12/05 08:29:10;;;;;;;13.93;2.58;;;15.20;99.90;;;;;;5013335;28;19905;-77
2022/12/05 08:31:45;;;;;;;10.07;2.60;;;15.20;99.90;;;;;;5013720;28;20494;-76
2022/12/05 08:34:14;;;;;;;8.75;2.55;;;15.30;99.90;;;;;;5013157;28;20036;-76
2022/12/05 08:36:43;;;;;;;10.13;2.55;;;15.40;99.90;;;;;;5013292;28;20045;-78
2022/12/05 08:39:14;;;;;;;9.40;3.03;;;15.50;99.90;;;;;;5013111;28;20026;-75
2022/12/05 08:41:45;;;;;;;9.00;2.47;;;15.60;99.90;;;;;;5013283;28;20022;-76
2022/12/05 08:44:21;;;;;;;17.88;2.45;;;15.70;99.90;;;;;;5013078;28;20022;-76
2022/12/05 08:46:49;;;;;;;14.63;2.63;;;15.90;99.90;;;;;;5013619;28;20339;-76
2022/12/05 08:49:20;;;;;;;14.75;2.92;;;16.00;99.90;;;;;;5013283;28;20030;-76
2022/12/05 08:51:46;;;;;;;14.52;2.60;;;16.10;99.90;;;;;;5012926;28;20065;-77
2022/12/05 08:54:22;;;;;;;13.35;2.63;;;16.20;99.90;;;;;;5013338;28;20030;-78
2022/12/05 08:57:03;;;;;;;14.18;2.80;;;16.30;99.90;;;;;;5013118;28;20041;-77
2022/12/05 08:59:31;;;;;;;13.35;2.40;;;16.30;99.90;;;;;;5012367;28;20022;-77
2022/12/05 09:02:00;;;;;;;16.52;3.17;;;16.40;99.90;;;;;;5012351;28;20347;-76
2022/12/05 09:04:26;;;;;;;11.93;2.55;;;16.50;99.90;;;;;;5011858;28;20540;-77
2022/12/05 09:06:52;;;;;;;19.10;3.20;;;16.70;99.90;;;;;;5012183;28;20051;-76
2022/12/05 09:09:18;;;;;;;17.00;3.08;;;16.90;99.90;;;;;;5012075;28;20028;-77
2022/12/05 09:11:49;;;;;;;26.63;3.15;;;16.90;99.90;;;;;;5011711;28;20342;-78
2022/12/05 09:14:17;;;;;;;21.17;2.80;;;17.00;99.90;;;;;;5016679;28;20037;-76
2022/12/05 09:16:45;;;;;;;19.70;3.45;;;17.20;99.90;;;;;;5028559;28;20091;-77
2022/12/05 09:19:16;;;;;;;19.35;2.83;;;17.30;99.90;;;;;;5031088;28;20030;-77
2022/12/05 09:21:43;;;;;;;20.90;2.90;;;17.50;99.90;;;;;;5032083;28;20052;-77
2022/12/05 09:24:13;;;;;;;18.88;2.67;;;17.70;99.90;;;;;;5032520;28;20022;-73
2022/12/05 09:26:39;;;;;;;18.63;3.20;;;17.80;99.90;;;;;;5032394;28;20032;-78
2022/12/05 09:29:05;;;;;;;15.45;2.80;;;17.90;99.90;;;;;;5032499;28;20036;-80
2022/12/05 09:31:32;;;;;;;28.52;3.70;;;18.00;99.90;;;;;;5032705;28;20051;-79
2022/12/05 09:33:59;;;;;;;18.10;2.92;;;18.00;99.90;;;;;;5032527;28;20021;-77
2022/12/05 09:36:29;;;;;;;20.48;4.28;;;18.10;99.90;;;;;;5032891;28;20385;-79
2022/12/05 09:38:58;;;;;;;21.33;3.42;;;18.20;99.90;;;;;;5032569;28;20109;-79
2022/12/05 09:42:06;;;;;;;21.08;3.60;;;18.20;99.90;;;;;;5032769;28;20056;-78
2022/12/05 09:45:07;;;;;;;16.85;3.75;;;17.80;99.90;;;;;;5033104;28;20018;-78
2022/12/05 09:47:56;;;;;;;15.25;2.92;;;18.00;99.90;;;;;;4971991;28;20172;-79
2022/12/05 09:50:29;;;;;;;21.73;3.88;;;18.20;99.90;;;;;;4972258;28;20041;-79
2022/12/05 09:53:04;;;;;;;20.42;3.13;;;18.20;99.90;;;;;;4971149;28;20030;-79
2022/12/05 09:55:49;;;;;;;21.17;3.30;;;18.20;99.90;;;;;;4971380;28;20046;-79
2022/12/05 09:58:25;;;;;;;24.50;3.65;;;18.30;99.90;;;;;;4971453;28;20038;-79
2022/12/05 10:00:58;;;;;;;16.10;3.23;;;18.40;99.90;;;;;;4971062;28;20061;-79
2022/12/05 10:03:38;;;;;;;16.75;3.22;;;18.50;99.90;;;;;;4970774;28;20312;-79
2022/12/05 10:06:20;;;;;;;15.93;3.53;;;18.70;99.90;;;;;;4970799;28;20035;-76
2022/12/05 10:09:02;;;;;;;13.95;2.80;;;19.00;99.90;;;;;;4970812;28;20050;-76
2022/12/05 10:11:42;;;;;;;17.90;3.25;;;19.20;99.90;;;;;;4970181;28;20047;-76
2022/12/05 10:14:33;;;;;;;16.73;2.85;;;19.40;99.90;;;;;;4970410;28;20062;-76
2022/12/05 10:17:09;;;;;;;18.45;3.53;;;19.70;99.90;;;;;;4970966;28;20047;-70
2022/12/05 10:19:38;;;;;;;;;;;20.00;99.90;;;;;;4954601;28;20032;-74
2022/12/05 10:22:19;;;;;;;18.40;3.65;;;20.30;99.90;;;;;;4950681;29;19963;-75
2022/12/05 10:24:53;;;;;;;17.33;3.60;;;20.40;99.90;;;;;;5003874;28;20038;-79
2022/12/05 10:27:32;;;;;;;22.65;4.00;;;20.50;99.90;;;;;;5011673;28;20193;-80
2022/12/05 10:30:13;;;;;;;20.85;3.83;;;20.40;99.90;;;;;;5011318;28;20072;-80
2022/12/05 10:32:52;;;;;;;35.85;13.55;;;20.60;99.90;;;;;;5009999;28;20053;-80
2022/12/05 10:35:25;;;;;;;45.80;17.92;;;20.60;99.90;;;;;;5013604;28;20119;-80
2022/12/05 10:37:57;;;;;;;35.67;13.60;;;20.70;99.90;;;;;;5015199;28;20045;-80
2022/12/05 10:40:32;;;;;;;26.75;6.88;;;20.70;99.90;;;;;;5015314;28;20025;-80
2022/12/05 10:42:59;;;;;;;;;;;20.90;99.90;;;;;;5015132;28;20065;-80
2022/12/05 10:45:25;;;;;;;32.30;10.35;;;21.00;99.90;;;;;;5015182;28;20014;-78
2022/12/05 10:47:56;;;;;;;24.77;4.70;;;21.10;99.90;;;;;;5014636;28;20030;-79
2022/12/05 10:50:28;;;;;;;31.05;4.35;;;21.10;99.90;;;;;;5014294;28;20025;-79
2022/12/05 10:52:56;;;;;;;27.65;6.05;;;20.80;99.90;;;;;;5014724;28;20104;-79
2022/12/05 10:55:27;;;;;;;20.63;3.88;;;20.10;99.90;;;;;;5012562;28;20036;-79
2022/12/05 10:58:11;;;;;;;20.48;4.55;;;20.20;99.90;;;;;;5012931;28;20022;-79
2022/12/05 11:00:43;;;;;;;15.68;4.00;;;19.80;99.90;;;;;;5014253;28;20018;-80
2022/12/05 11:03:24;;;;;;;16.95;5.22;;;20.00;99.90;;;;;;5014353;28;20022;-80
2022/12/05 11:05:52;;;;;;;22.35;3.65;;;19.90;99.90;;;;;;5014690;28;20441;-81
2022/12/05 12:30:39;;;;;;;17.65;3.30;;;19.20;99.90;;;;;;5131116;27;20134;-86
2022/12/05 12:33:27;;;;;;;24.02;3.88;;;19.20;99.90;;;;;;5131024;28;20032;-85
2022/12/05 12:36:27;;;;;;;25.50;3.85;;;19.10;99.90;;;;;;5130696;28;20027;-87
2022/12/05 12:38:59;;;;;;;22.33;3.78;;;19.00;99.90;;;;;;5130950;28;20028;-87
2022/12/05 12:41:31;;;;;;;20.30;3.70;;;19.10;99.90;;;;;;5111935;28;20028;-85
2022/12/05 12:44:16;;;;;;;27.25;3.80;;;19.20;99.90;;;;;;5131179;28;20023;-84
2022/12/05 12:46:51;;;;;;;22.80;3.00;;;19.40;99.90;;;;;;5112032;28;20032;-83
2022/12/05 12:49:37;;;;;;;24.52;3.92;;;19.60;99.90;;;;;;5111853;28;20127;-83
2022/12/05 12:52:16;;;;;;;21.55;4.00;;;19.50;99.90;;;;;;5131073;28;20030;-82
2022/12/05 12:54:59;;;;;;;24.33;3.63;;;19.80;99.90;;;;;;5113538;28;20027;-84
2022/12/05 12:57:42;;;;;;;31.35;3.50;;;19.80;99.90;;;;;;5134194;28;20054;-82
2022/12/05 13:00:30;;;;;;;19.90;3.03;;;19.80;99.90;;;;;;5133039;28;20088;-83
2022/12/05 13:03:10;;;;;;;25.95;4.35;;;19.90;99.90;;;;;;5113200;28;20038;-83
2022/12/05 13:05:47;;;;;;;21.20;3.35;;;19.80;99.90;;;;;;5115391;28;20588;-85
2022/12/05 13:08:32;;;;;;;24.70;3.63;;;19.80;99.90;;;;;;5111939;28;20050;-85
2022/12/05 13:11:01;;;;;;;21.20;3.33;;;19.60;99.90;;;;;;5130190;28;20483;-86
2022/12/05 13:13:35;;;;;;;17.10;3.53;;;19.70;99.90;;;;;;5129838;28;20019;-85
2022/12/05 13:16:07;;;;;;;23.48;3.28;;;19.70;99.90;;;;;;5117047;28;20395;-85
2022/12/05 13:18:34;;;;;;;19.67;3.25;;;19.80;99.90;;;;;;5110177;28;20122;-85
2022/12/05 13:21:25;;;;;;;21.55;3.58;;;20.00;99.90;;;;;;5109820;28;20073;-86
2022/12/05 13:24:02;;;;;;;21.67;3.55;;;20.10;99.90;;;;;;5109821;28;20463;-84
2022/12/05 13:26:31;;;;;;;16.40;3.15;;;20.10;99.90;;;;;;5110131;28;20020;-86
2022/12/05 13:29:00;;;;;;;19.60;3.10;;;20.20;99.90;;;;;;5122790;28;20140;-85
2022/12/05 13:31:38;;;;;;;20.90;3.70;;;20.30;99.90;;;;;;5112146;28;20027;-85
2022/12/05 13:34:05;;;;;;;21.55;3.25;;;20.30;99.90;;;;;;5130411;28;20027;-86
2022/12/05 13:42:26;;;;;;;22.52;4.20;;;19.90;99.90;;;;;;5118076;28;20107;-86
2022/12/05 13:44:56;;;;;;;26.95;4.35;;;19.90;99.90;;;;;;5116695;28;20023;-87
2022/12/05 13:47:31;;;;;;;21.48;3.10;;;19.70;99.90;;;;;;5116876;28;20612;-86
2022/12/05 13:50:12;;;;;;;18.42;3.22;;;19.60;99.90;;;;;;5116176;28;20035;-86
2022/12/05 13:52:51;;;;;;;20.55;3.72;;;19.70;99.90;;;;;;5097536;28;20023;-86
2022/12/05 13:55:26;;;;;;;24.45;3.55;;;19.90;99.90;;;;;;5097206;28;20034;-85
2022/12/05 13:58:22;;;;;;;13.90;3.00;;;19.90;99.90;;;;;;5115909;28;20058;-85
2022/12/05 14:00:50;;;;;;;23.55;3.15;;;19.70;99.90;;;;;;5075528;28;20379;-86
2022/12/05 14:03:34;;;;;;;26.08;4.10;;;19.80;99.90;;;;;;5109675;28;20031;-84
2022/12/05 14:06:00;;;;;;;20.25;3.08;;;19.80;99.90;;;;;;5115305;28;20386;-85
2022/12/05 14:08:30;;;;;;;23.52;3.63;;;19.70;99.90;;;;;;5096636;28;20081;-85
2022/12/05 14:10:56;;;;;;;23.20;3.63;;;19.50;99.90;;;;;;5096584;28;20119;-85
2022/12/05 14:13:22;;;;;;;21.23;2.80;;;19.40;99.90;;;;;;5115363;28;20039;-83
2022/12/05 14:15:50;;;;;;;27.23;4.00;;;19.40;99.90;;;;;;5115685;28;20468;-84
2022/12/05 14:18:19;;;;;;;18.23;2.80;;;19.40;99.90;;;;;;5097649;28;20027;-85
2022/12/05 14:20:54;;;;;;;16.40;3.50;;;19.50;99.90;;;;;;5097057;28;20038;-85
2022/12/05 14:23:26;;;;;;;21.02;3.58;;;19.50;99.90;;;;;;5115839;28;20451;-86
2022/12/05 14:26:01;;;;;;;27.35;3.55;;;19.40;99.90;;;;;;5115660;28;20027;-85
2022/12/05 14:28:56;;;;;;;19.10;3.67;;;19.20;99.90;;;;;;5115455;28;20052;-86
2022/12/05 14:31:44;;;;;;;25.23;3.27;;;19.20;99.90;;;;;;5097534;28;20443;-86
2022/12/05 14:34:21;;;;;;;23.13;3.03;;;19.10;99.90;;;;;;5096959;28;20031;-83
2022/12/05 14:37:19;;;;;;;24.80;3.42;;;19.10;99.90;;;;;;5115620;28;20081;-84
2022/12/05 14:39:51;;;;;;;23.27;3.30;;;19.20;99.90;;;;;;5115071;28;20373;-81
2022/12/05 14:42:30;;;;;;;23.17;3.30;;;19.20;99.90;;;;;;5115077;28;20446;-80
2022/12/05 14:45:00;;;;;;;21.23;3.13;;;19.10;99.90;;;;;;5109891;28;20035;-81
2022/12/05 14:47:32;;;;;;;25.33;3.47;;;19.00;99.90;;;;;;5110427;28;20042;-81